CheckWX is a tool to help pilots better visualize weather data.  It is not intended as a substitute for an official pre-flight weather briefing.

04:14:14 UTC

KQES METAR
Daesan Rws
Daesan Rws, South Korea
Current

14 mins ago

KQES 270400Z AUTO 25015G22KT 9000 OVC002 18/17 A2961 RMK A02 TSNO
Observed
May-27 @ 04:00 UTC
Wind
  • 250° at 15 KTS
  • Gusting to 22 KTS
Visibility
8,996 meters
Flight Rules
LIFR
Cloud Levels
  • Overcast at 200' AGL
Temperature
18°C / 64°F
Dewpoint
17°C / 63°F
Humidity
94%
Altimeter
29.61" Hg
Pressure
1002.72 hPa
Previous

24 mins ago

KQES 270350Z AUTO 23010G22KT 6000 OVC002 18/17 A2961 RMK A02 TSNO
Observed
May-27 @ 03:50 UTC
Wind
  • 230° at 10 KTS
  • Gusting to 22 KTS
Visibility
6,003 meters
Flight Rules
LIFR
Cloud Levels
  • Overcast at 200' AGL
Temperature
18°C / 64°F
Dewpoint
17°C / 63°F
Humidity
94%
Altimeter
29.61" Hg
Pressure
1002.72 hPa
Previous

44 mins ago

KQES 270330Z AUTO 20014G23KT 4000 BR OVC003 18/17 A2960 RMK A02 TSNO
Observed
May-27 @ 03:30 UTC
Wind
  • 200° at 14 KTS
  • Gusting to 23 KTS
Visibility
4,007 meters
Flight Rules
LIFR
Conditions
Mist
Cloud Levels
  • Overcast at 300' AGL
Temperature
18°C / 64°F
Dewpoint
17°C / 63°F
Humidity
94%
Altimeter
29.6" Hg
Pressure
1002.42 hPa